sensor_id;sensor_type;location;lat;lon;timestamp;P1;durP1;ratioP1;P2;durP2;ratioP2
25687;SDS011;17407;51.120;3.702;2023-05-07T11:57:34;5.97;;;2.80;;
25687;SDS011;17407;51.120;3.702;2023-05-07T12:00:00;6.22;;;3.22;;
25687;SDS011;17407;51.120;3.702;2023-05-07T12:02:30;4.47;;;3.35;;
25687;SDS011;17407;51.120;3.702;2023-05-07T12:04:56;4.22;;;3.05;;
25687;SDS011;17407;51.120;3.702;2023-05-07T12:07:23;4.82;;;3.03;;
25687;SDS011;17407;51.120;3.702;2023-05-07T12:09:49;3.97;;;3.17;;
25687;SDS011;17407;51.120;3.702;2023-05-07T12:12:15;8.32;;;4.45;;
25687;SDS011;17407;51.120;3.702;2023-05-07T12:14:42;8.18;;;3.78;;
25687;SDS011;17407;51.120;3.702;2023-05-07T12:17:09;4.82;;;3.70;;
25687;SDS011;17407;51.120;3.702;2023-05-07T12:19:36;3.80;;;2.70;;
25687;SDS011;17407;51.120;3.702;2023-05-07T12:22:03;5.15;;;3.53;;
25687;SDS011;17407;51.120;3.702;2023-05-07T12:24:49;4.32;;;3.20;;
25687;SDS011;17407;51.120;3.702;2023-05-07T12:27:21;5.30;;;2.55;;
25687;SDS011;17407;51.120;3.702;2023-05-07T12:29:47;3.17;;;2.80;;
25687;SDS011;17407;51.120;3.702;2023-05-07T12:32:17;4.32;;;1.92;;
25687;SDS011;17407;51.120;3.702;2023-05-07T12:34:43;3.95;;;2.72;;
25687;SDS011;17407;51.120;3.702;2023-05-07T12:37:10;4.57;;;2.53;;
25687;SDS011;17407;51.120;3.702;2023-05-07T12:39:36;5.85;;;3.05;;
25687;SDS011;17407;51.120;3.702;2023-05-07T12:42:01;3.50;;;2.78;;
25687;SDS011;17407;51.120;3.702;2023-05-07T12:44:33;6.22;;;2.58;;
25687;SDS011;17407;51.120;3.702;2023-05-07T12:47:03;5.95;;;2.65;;
25687;SDS011;17407;51.120;3.702;2023-05-07T12:49:28;3.63;;;3.33;;
25687;SDS011;17407;51.120;3.702;2023-05-07T12:51:54;4.35;;;2.97;;
25687;SDS011;17407;51.120;3.702;2023-05-07T12:54:27;5.45;;;2.83;;
25687;SDS011;17407;51.120;3.702;2023-05-07T12:57:08;3.35;;;2.25;;
25687;SDS011;17407;51.120;3.702;2023-05-07T12:59:38;3.67;;;2.67;;
25687;SDS011;17407;51.120;3.702;2023-05-07T13:02:05;3.42;;;2.70;;
25687;SDS011;17407;51.120;3.702;2023-05-07T13:04:32;6.20;;;2.88;;
25687;SDS011;17407;51.120;3.702;2023-05-07T13:06:59;4.40;;;2.60;;
25687;SDS011;17407;51.120;3.702;2023-05-07T13:09:25;4.47;;;2.88;;
25687;SDS011;17407;51.120;3.702;2023-05-07T13:11:51;5.70;;;2.50;;
25687;SDS011;17407;51.120;3.702;2023-05-07T13:14:16;4.47;;;2.55;;
25687;SDS011;17407;51.120;3.702;2023-05-07T13:16:42;4.35;;;2.92;;
25687;SDS011;17407;51.120;3.702;2023-05-07T13:19:08;4.95;;;2.42;;
25687;SDS011;17407;51.120;3.702;2023-05-07T13:21:33;4.20;;;2.30;;
25687;SDS011;17407;51.120;3.702;2023-05-07T13:23:59;4.40;;;2.75;;
25687;SDS011;17407;51.120;3.702;2023-05-07T13:26:25;3.08;;;2.42;;
25687;SDS011;17407;51.120;3.702;2023-05-07T13:28:52;5.22;;;2.70;;
25687;SDS011;17407;51.120;3.702;2023-05-07T13:31:18;5.57;;;3.47;;
25687;SDS011;17407;51.120;3.702;2023-05-07T13:33:45;4.10;;;2.70;;
25687;SDS011;17407;51.120;3.702;2023-05-07T13:36:11;6.10;;;2.65;;
25687;SDS011;17407;51.120;3.702;2023-05-07T13:38:37;5.75;;;3.08;;
25687;SDS011;17407;51.120;3.702;2023-05-07T13:41:02;3.95;;;2.45;;
25687;SDS011;17407;51.120;3.702;2023-05-07T13:43:28;4.85;;;2.58;;
25687;SDS011;17407;51.120;3.702;2023-05-07T13:45:54;3.83;;;2.20;;
25687;SDS011;17407;51.120;3.702;2023-05-07T13:48:19;3.67;;;2.13;;
25687;SDS011;17407;51.120;3.702;2023-05-07T13:50:45;4.80;;;2.30;;
25687;SDS011;17407;51.120;3.702;2023-05-07T13:53:11;3.05;;;2.20;;
25687;SDS011;17407;51.120;3.702;2023-05-07T13:55:36;3.75;;;2.17;;
25687;SDS011;17407;51.120;3.702;2023-05-07T13:58:02;3.50;;;2.67;;
25687;SDS011;17407;51.120;3.702;2023-05-07T14:00:28;4.40;;;2.58;;
25687;SDS011;17407;51.120;3.702;2023-05-07T14:02:54;6.13;;;3.88;;
25687;SDS011;17407;51.120;3.702;2023-05-07T14:05:21;8.50;;;6.75;;
25687;SDS011;17407;51.120;3.702;2023-05-07T14:07:53;9.02;;;7.10;;
25687;SDS011;17407;51.120;3.702;2023-05-07T14:10:20;8.45;;;6.68;;
25687;SDS011;17407;51.120;3.702;2023-05-07T14:12:46;10.63;;;7.18;;
25687;SDS011;17407;51.120;3.702;2023-05-07T14:15:12;9.82;;;6.53;;
25687;SDS011;17407;51.120;3.702;2023-05-07T14:17:38;8.43;;;6.72;;
25687;SDS011;17407;51.120;3.702;2023-05-07T14:20:03;10.25;;;6.28;;
25687;SDS011;17407;51.120;3.702;2023-05-07T14:22:31;6.47;;;5.38;;
25687;SDS011;17407;51.120;3.702;2023-05-07T14:24:57;9.30;;;5.85;;
25687;SDS011;17407;51.120;3.702;2023-05-07T14:27:23;8.95;;;6.00;;
25687;SDS011;17407;51.120;3.702;2023-05-07T14:29:48;6.22;;;5.28;;
25687;SDS011;17407;51.120;3.702;2023-05-07T14:32:16;6.88;;;5.07;;
25687;SDS011;17407;51.120;3.702;2023-05-07T14:34:43;7.15;;;4.82;;
25687;SDS011;17407;51.120;3.702;2023-05-07T14:37:09;11.65;;;5.28;;
25687;SDS011;17407;51.120;3.702;2023-05-07T14:39:35;6.00;;;5.40;;
25687;SDS011;17407;51.120;3.702;2023-05-07T14:42:00;8.13;;;5.60;;
25687;SDS011;17407;51.120;3.702;2023-05-07T14:44:27;7.22;;;5.00;;
25687;SDS011;17407;51.120;3.702;2023-05-07T14:46:52;8.45;;;5.32;;
25687;SDS011;17407;51.120;3.702;2023-05-07T14:49:18;6.40;;;5.70;;
25687;SDS011;17407;51.120;3.702;2023-05-07T14:51:44;7.30;;;5.25;;
25687;SDS011;17407;51.120;3.702;2023-05-07T14:54:11;6.00;;;5.15;;
25687;SDS011;17407;51.120;3.702;2023-05-07T14:56:37;7.07;;;5.13;;
25687;SDS011;17407;51.120;3.702;2023-05-07T14:59:03;7.68;;;5.25;;
25687;SDS011;17407;51.120;3.702;2023-05-07T15:01:29;10.75;;;7.78;;
25687;SDS011;17407;51.120;3.702;2023-05-07T15:03:54;17.25;;;13.27;;
25687;SDS011;17407;51.120;3.702;2023-05-07T15:06:21;16.10;;;12.38;;
25687;SDS011;17407;51.120;3.702;2023-05-07T15:08:46;19.45;;;13.45;;
25687;SDS011;17407;51.120;3.702;2023-05-07T15:11:13;15.32;;;13.02;;
25687;SDS011;17407;51.120;3.702;2023-05-07T15:13:39;25.55;;;19.05;;
25687;SDS011;17407;51.120;3.702;2023-05-07T15:16:06;18.88;;;16.90;;
25687;SDS011;17407;51.120;3.702;2023-05-07T15:18:32;23.08;;;17.98;;
25687;SDS011;17407;51.120;3.702;2023-05-07T15:20:58;19.83;;;17.73;;
25687;SDS011;17407;51.120;3.702;2023-05-07T15:23:24;17.45;;;14.23;;
25687;SDS011;17407;51.120;3.702;2023-05-07T15:25:49;11.25;;;8.68;;
25687;SDS011;17407;51.120;3.702;2023-05-07T15:28:15;13.30;;;10.32;;
25687;SDS011;17407;51.120;3.702;2023-05-07T15:30:41;10.95;;;9.35;;
25687;SDS011;17407;51.120;3.702;2023-05-07T15:33:06;15.38;;;10.82;;
25687;SDS011;17407;51.120;3.702;2023-05-07T15:35:32;14.82;;;11.25;;
25687;SDS011;17407;51.120;3.702;2023-05-07T15:37:58;16.60;;;11.65;;
25687;SDS011;17407;51.120;3.702;2023-05-07T15:40:23;14.02;;;11.52;;
25687;SDS011;17407;51.120;3.702;2023-05-07T15:42:49;16.88;;;11.10;;
25687;SDS011;17407;51.120;3.702;2023-05-07T15:45:18;12.98;;;8.85;;
25687;SDS011;17407;51.120;3.702;2023-05-07T15:47:44;13.88;;;10.55;;
25687;SDS011;17407;51.120;3.702;2023-05-07T15:50:10;15.18;;;10.90;;
25687;SDS011;17407;51.120;3.702;2023-05-07T15:52:36;14.57;;;11.70;;
25687;SDS011;17407;51.120;3.702;2023-05-07T15:55:03;15.43;;;12.00;;
25687;SDS011;17407;51.120;3.702;2023-05-07T15:57:30;21.80;;;16.35;;
25687;SDS011;17407;51.120;3.702;2023-05-07T15:59:56;22.38;;;16.13;;
25687;SDS011;17407;51.120;3.702;2023-05-07T16:02:22;25.45;;;18.92;;
25687;SDS011;17407;51.120;3.702;2023-05-07T16:04:47;32.88;;;22.25;;
25687;SDS011;17407;51.120;3.702;2023-05-07T16:07:13;30.15;;;21.95;;
25687;SDS011;17407;51.120;3.702;2023-05-07T16:09:39;30.40;;;20.73;;
25687;SDS011;17407;51.120;3.702;2023-05-07T16:12:05;37.28;;;28.45;;
25687;SDS011;17407;51.120;3.702;2023-05-07T16:14:30;40.03;;;29.35;;
25687;SDS011;17407;51.120;3.702;2023-05-07T16:16:56;34.72;;;27.45;;
25687;SDS011;17407;51.120;3.702;2023-05-07T16:19:22;40.17;;;32.10;;
25687;SDS011;17407;51.120;3.702;2023-05-07T16:21:48;34.40;;;28.67;;
25687;SDS011;17407;51.120;3.702;2023-05-07T16:24:13;34.42;;;29.05;;
25687;SDS011;17407;51.120;3.702;2023-05-07T16:26:39;32.28;;;26.02;;
25687;SDS011;17407;51.120;3.702;2023-05-07T16:29:05;38.60;;;29.70;;
25687;SDS011;17407;51.120;3.702;2023-05-07T16:31:31;27.88;;;24.98;;
25687;SDS011;17407;51.120;3.702;2023-05-07T16:33:57;32.33;;;27.52;;
25687;SDS011;17407;51.120;3.702;2023-05-07T16:36:26;35.22;;;29.52;;
25687;SDS011;17407;51.120;3.702;2023-05-07T16:38:53;38.08;;;30.08;;
25687;SDS011;17407;51.120;3.702;2023-05-07T16:41:19;38.33;;;31.77;;
25687;SDS011;17407;51.120;3.702;2023-05-07T16:43:45;37.78;;;29.83;;
25687;SDS011;17407;51.120;3.702;2023-05-07T16:46:11;37.35;;;29.38;;
25687;SDS011;17407;51.120;3.702;2023-05-07T16:48:37;38.20;;;32.28;;
25687;SDS011;17407;51.120;3.702;2023-05-07T16:51:02;33.53;;;29.17;;
25687;SDS011;17407;51.120;3.702;2023-05-07T16:53:28;30.95;;;27.63;;
25687;SDS011;17407;51.120;3.702;2023-05-07T16:55:54;35.67;;;29.60;;
25687;SDS011;17407;51.120;3.702;2023-05-07T16:58:20;34.60;;;29.10;;
25687;SDS011;17407;51.120;3.702;2023-05-07T17:00:46;29.52;;;24.90;;
25687;SDS011;17407;51.120;3.702;2023-05-07T17:03:12;27.40;;;22.60;;
25687;SDS011;17407;51.120;3.702;2023-05-07T17:05:38;25.42;;;21.88;;
25687;SDS011;17407;51.120;3.702;2023-05-07T17:08:03;29.17;;;21.30;;
25687;SDS011;17407;51.120;3.702;2023-05-07T17:10:29;26.75;;;17.50;;
25687;SDS011;17407;51.120;3.702;2023-05-07T17:12:55;22.55;;;17.58;;
25687;SDS011;17407;51.120;3.702;2023-05-07T17:15:21;19.08;;;17.05;;
25687;SDS011;17407;51.120;3.702;2023-05-07T17:17:46;21.67;;;15.63;;
25687;SDS011;17407;51.120;3.702;2023-05-07T17:20:12;18.95;;;15.73;;
25687;SDS011;17407;51.120;3.702;2023-05-07T17:22:38;18.55;;;15.02;;
25687;SDS011;17407;51.120;3.702;2023-05-07T17:25:04;18.90;;;13.38;;
25687;SDS011;17407;51.120;3.702;2023-05-07T17:27:31;19.92;;;14.27;;
25687;SDS011;17407;51.120;3.702;2023-05-07T17:29:58;19.90;;;13.48;;
25687;SDS011;17407;51.120;3.702;2023-05-07T17:32:24;22.23;;;13.93;;
25687;SDS011;17407;51.120;3.702;2023-05-07T17:34:50;19.90;;;12.95;;
25687;SDS011;17407;51.120;3.702;2023-05-07T17:37:16;16.65;;;12.25;;
25687;SDS011;17407;51.120;3.702;2023-05-07T17:39:42;18.08;;;13.48;;
25687;SDS011;17407;51.120;3.702;2023-05-07T17:42:08;18.02;;;12.20;;
25687;SDS011;17407;51.120;3.702;2023-05-07T17:44:33;13.75;;;10.73;;
25687;SDS011;17407;51.120;3.702;2023-05-07T17:46:59;12.95;;;10.60;;
25687;SDS011;17407;51.120;3.702;2023-05-07T17:49:25;14.75;;;11.38;;
25687;SDS011;17407;51.120;3.702;2023-05-07T17:51:51;16.85;;;11.75;;
25687;SDS011;17407;51.120;3.702;2023-05-07T17:54:17;14.75;;;11.10;;
25687;SDS011;17407;51.120;3.702;2023-05-07T17:56:43;16.55;;;11.35;;
25687;SDS011;17407;51.120;3.702;2023-05-07T17:59:08;18.95;;;12.88;;
25687;SDS011;17407;51.120;3.702;2023-05-07T18:01:35;17.55;;;12.13;;
25687;SDS011;17407;51.120;3.702;2023-05-07T18:04:01;20.17;;;12.20;;
25687;SDS011;17407;51.120;3.702;2023-05-07T18:06:27;20.40;;;12.98;;
25687;SDS011;17407;51.120;3.702;2023-05-07T18:08:53;17.70;;;12.95;;
25687;SDS011;17407;51.120;3.702;2023-05-07T18:11:19;21.45;;;16.23;;
25687;SDS011;17407;51.120;3.702;2023-05-07T18:13:45;21.48;;;14.70;;
25687;SDS011;17407;51.120;3.702;2023-05-07T18:16:12;20.52;;;15.98;;
25687;SDS011;17407;51.120;3.702;2023-05-07T18:18:38;21.65;;;15.52;;
25687;SDS011;17407;51.120;3.702;2023-05-07T18:21:04;26.02;;;17.35;;
25687;SDS011;17407;51.120;3.702;2023-05-07T18:23:30;24.58;;;18.35;;
25687;SDS011;17407;51.120;3.702;2023-05-07T18:25:59;23.50;;;16.85;;
25687;SDS011;17407;51.120;3.702;2023-05-07T18:28:25;25.88;;;17.48;;
25687;SDS011;17407;51.120;3.702;2023-05-07T18:30:50;26.90;;;18.30;;
25687;SDS011;17407;51.120;3.702;2023-05-07T18:33:16;25.83;;;20.58;;
25687;SDS011;17407;51.120;3.702;2023-05-07T18:35:42;32.80;;;21.83;;
25687;SDS011;17407;51.120;3.702;2023-05-07T18:38:08;26.25;;;19.27;;
25687;SDS011;17407;51.120;3.702;2023-05-07T18:40:34;26.40;;;18.10;;
25687;SDS011;17407;51.120;3.702;2023-05-07T18:43:01;31.55;;;20.95;;
25687;SDS011;17407;51.120;3.702;2023-05-07T18:45:30;26.85;;;18.98;;
25687;SDS011;17407;51.120;3.702;2023-05-07T18:47:59;27.30;;;18.42;;
25687;SDS011;17407;51.120;3.702;2023-05-07T18:50:25;23.60;;;18.05;;
25687;SDS011;17407;51.120;3.702;2023-05-07T18:52:51;23.48;;;16.27;;
25687;SDS011;17407;51.120;3.702;2023-05-07T18:55:16;20.90;;;16.38;;
25687;SDS011;17407;51.120;3.702;2023-05-07T18:57:42;26.30;;;16.85;;
25687;SDS011;17407;51.120;3.702;2023-05-07T19:00:09;20.23;;;17.42;;
25687;SDS011;17407;51.120;3.702;2023-05-07T19:02:36;26.67;;;16.88;;
25687;SDS011;17407;51.120;3.702;2023-05-07T19:05:02;24.40;;;18.23;;
25687;SDS011;17407;51.120;3.702;2023-05-07T19:07:28;19.27;;;15.77;;
25687;SDS011;17407;51.120;3.702;2023-05-07T19:09:54;25.95;;;16.63;;
25687;SDS011;17407;51.120;3.702;2023-05-07T19:12:20;23.85;;;14.98;;
25687;SDS011;17407;51.120;3.702;2023-05-07T19:14:47;22.13;;;14.88;;
25687;SDS011;17407;51.120;3.702;2023-05-07T19:17:12;18.50;;;12.68;;
25687;SDS011;17407;51.120;3.702;2023-05-07T19:19:40;18.50;;;13.77;;
25687;SDS011;17407;51.120;3.702;2023-05-07T19:22:05;20.67;;;14.43;;
25687;SDS011;17407;51.120;3.702;2023-05-07T19:24:31;17.38;;;14.18;;
25687;SDS011;17407;51.120;3.702;2023-05-07T19:26:58;20.50;;;14.23;;
25687;SDS011;17407;51.120;3.702;2023-05-07T19:29:24;20.77;;;13.18;;
25687;SDS011;17407;51.120;3.702;2023-05-07T19:31:49;17.75;;;13.95;;
25687;SDS011;17407;51.120;3.702;2023-05-07T19:34:15;20.38;;;13.63;;
25687;SDS011;17407;51.120;3.702;2023-05-07T19:36:41;18.60;;;12.63;;
25687;SDS011;17407;51.120;3.702;2023-05-07T19:39:06;15.90;;;13.13;;
25687;SDS011;17407;51.120;3.702;2023-05-07T19:41:32;15.57;;;12.75;;
25687;SDS011;17407;51.120;3.702;2023-05-07T19:43:58;19.15;;;12.85;;
25687;SDS011;17407;51.120;3.702;2023-05-07T19:46:24;22.27;;;13.35;;
25687;SDS011;17407;51.120;3.702;2023-05-07T19:48:49;15.32;;;12.68;;
25687;SDS011;17407;51.120;3.702;2023-05-07T19:51:15;17.48;;;12.55;;
25687;SDS011;17407;51.120;3.702;2023-05-07T19:53:41;17.15;;;13.20;;
25687;SDS011;17407;51.120;3.702;2023-05-07T19:56:09;18.67;;;13.60;;
25687;SDS011;17407;51.120;3.702;2023-05-07T19:58:35;19.98;;;13.73;;
25687;SDS011;17407;51.120;3.702;2023-05-07T20:01:02;21.45;;;14.30;;
25687;SDS011;17407;51.120;3.702;2023-05-07T20:03:28;25.33;;;14.43;;
25687;SDS011;17407;51.120;3.702;2023-05-07T20:05:55;26.20;;;15.68;;
25687;SDS011;17407;51.120;3.702;2023-05-07T20:08:21;21.30;;;14.95;;
25687;SDS011;17407;51.120;3.702;2023-05-07T20:10:47;25.48;;;15.20;;
25687;SDS011;17407;51.120;3.702;2023-05-07T20:13:13;22.08;;;14.93;;
25687;SDS011;17407;51.120;3.702;2023-05-07T20:15:39;24.67;;;14.25;;
25687;SDS011;17407;51.120;3.702;2023-05-07T20:18:05;20.48;;;14.65;;
25687;SDS011;17407;51.120;3.702;2023-05-07T20:20:31;20.90;;;14.80;;
25687;SDS011;17407;51.120;3.702;2023-05-07T20:22:57;21.73;;;16.13;;
25687;SDS011;17407;51.120;3.702;2023-05-07T20:25:23;24.35;;;16.38;;
25687;SDS011;17407;51.120;3.702;2023-05-07T20:27:48;23.17;;;15.77;;
25687;SDS011;17407;51.120;3.702;2023-05-07T20:30:14;24.33;;;16.45;;
25687;SDS011;17407;51.120;3.702;2023-05-07T20:32:39;19.88;;;14.82;;
25687;SDS011;17407;51.120;3.702;2023-05-07T20:35:06;19.80;;;15.73;;
25687;SDS011;17407;51.120;3.702;2023-05-07T20:37:32;22.50;;;15.60;;
25687;SDS011;17407;51.120;3.702;2023-05-07T20:39:59;26.27;;;17.65;;
25687;SDS011;17407;51.120;3.702;2023-05-07T20:42:25;25.23;;;17.55;;
25687;SDS011;17407;51.120;3.702;2023-05-07T20:44:51;21.38;;;17.38;;
25687;SDS011;17407;51.120;3.702;2023-05-07T20:47:17;20.92;;;16.88;;
25687;SDS011;17407;51.120;3.702;2023-05-07T20:49:49;23.42;;;16.58;;
25687;SDS011;17407;51.120;3.702;2023-05-07T20:52:18;21.60;;;15.73;;
25687;SDS011;17407;51.120;3.702;2023-05-07T20:54:44;23.45;;;16.83;;
25687;SDS011;17407;51.120;3.702;2023-05-07T20:57:11;21.17;;;16.13;;
25687;SDS011;17407;51.120;3.702;2023-05-07T20:59:38;24.25;;;17.92;;
25687;SDS011;17407;51.120;3.702;2023-05-07T21:02:04;27.23;;;18.73;;
25687;SDS011;17407;51.120;3.702;2023-05-07T21:04:30;24.30;;;19.15;;
25687;SDS011;17407;51.120;3.702;2023-05-07T21:06:56;27.00;;;18.85;;
25687;SDS011;17407;51.120;3.702;2023-05-07T21:09:23;24.27;;;19.60;;
25687;SDS011;17407;51.120;3.702;2023-05-07T21:11:49;26.33;;;19.15;;
25687;SDS011;17407;51.120;3.702;2023-05-07T21:14:14;27.85;;;19.35;;
25687;SDS011;17407;51.120;3.702;2023-05-07T21:16:40;27.67;;;20.02;;
25687;SDS011;17407;51.120;3.702;2023-05-07T21:19:08;29.88;;;19.45;;
25687;SDS011;17407;51.120;3.702;2023-05-07T21:21:34;29.73;;;20.35;;
25687;SDS011;17407;51.120;3.702;2023-05-07T21:24:00;27.10;;;19.17;;
25687;SDS011;17407;51.120;3.702;2023-05-07T21:26:26;24.27;;;18.58;;
25687;SDS011;17407;51.120;3.702;2023-05-07T21:28:52;24.55;;;18.80;;
25687;SDS011;17407;51.120;3.702;2023-05-07T21:31:18;22.23;;;17.35;;
25687;SDS011;17407;51.120;3.702;2023-05-07T21:33:47;19.90;;;17.73;;
25687;SDS011;17407;51.120;3.702;2023-05-07T21:36:13;27.48;;;20.63;;
25687;SDS011;17407;51.120;3.702;2023-05-07T21:38:40;26.00;;;20.63;;
25687;SDS011;17407;51.120;3.702;2023-05-07T21:41:05;32.25;;;22.17;;
25687;SDS011;17407;51.120;3.702;2023-05-07T21:43:31;30.52;;;23.05;;
25687;SDS011;17407;51.120;3.702;2023-05-07T21:45:57;27.33;;;20.48;;
25687;SDS011;17407;51.120;3.702;2023-05-07T21:48:26;29.52;;;19.92;;
25687;SDS011;17407;51.120;3.702;2023-05-07T21:50:59;33.50;;;21.60;;
25687;SDS011;17407;51.120;3.702;2023-05-07T21:53:29;33.03;;;23.40;;
25687;SDS011;17407;51.120;3.702;2023-05-07T21:55:55;31.73;;;24.67;;
25687;SDS011;17407;51.120;3.702;2023-05-07T21:58:21;31.67;;;24.10;;
25687;SDS011;17407;51.120;3.702;2023-05-07T22:00:46;26.92;;;19.85;;
25687;SDS011;17407;51.120;3.702;2023-05-07T22:03:12;25.17;;;20.27;;
25687;SDS011;17407;51.120;3.702;2023-05-07T22:05:38;32.00;;;23.38;;
25687;SDS011;17407;51.120;3.702;2023-05-07T22:08:03;36.45;;;26.40;;
25687;SDS011;17407;51.120;3.702;2023-05-07T22:10:29;32.13;;;25.48;;
25687;SDS011;17407;51.120;3.702;2023-05-07T22:12:55;36.00;;;26.10;;
25687;SDS011;17407;51.120;3.702;2023-05-07T22:15:20;35.67;;;25.13;;
25687;SDS011;17407;51.120;3.702;2023-05-07T22:17:46;36.30;;;26.70;;
25687;SDS011;17407;51.120;3.702;2023-05-07T22:20:11;36.13;;;26.25;;
25687;SDS011;17407;51.120;3.702;2023-05-07T22:22:44;39.30;;;28.45;;
25687;SDS011;17407;51.120;3.702;2023-05-07T22:25:14;36.33;;;28.30;;
25687;SDS011;17407;51.120;3.702;2023-05-07T22:27:40;39.35;;;29.90;;
25687;SDS011;17407;51.120;3.702;2023-05-07T22:30:06;41.70;;;30.73;;
25687;SDS011;17407;51.120;3.702;2023-05-07T22:32:32;43.47;;;31.65;;
25687;SDS011;17407;51.120;3.702;2023-05-07T22:34:58;43.88;;;30.73;;
25687;SDS011;17407;51.120;3.702;2023-05-07T22:37:23;46.80;;;32.55;;
25687;SDS011;17407;51.120;3.702;2023-05-07T22:39:49;43.15;;;32.10;;
25687;SDS011;17407;51.120;3.702;2023-05-07T22:42:15;42.78;;;31.70;;
25687;SDS011;17407;51.120;3.702;2023-05-07T22:44:40;53.00;;;34.83;;
25687;SDS011;17407;51.120;3.702;2023-05-07T22:47:06;54.08;;;35.92;;
25687;SDS011;17407;51.120;3.702;2023-05-07T22:49:35;57.88;;;38.88;;
25687;SDS011;17407;51.120;3.702;2023-05-07T22:52:01;62.25;;;39.33;;
25687;SDS011;17407;51.120;3.702;2023-05-07T22:54:26;58.95;;;40.08;;
25687;SDS011;17407;51.120;3.702;2023-05-07T22:56:52;59.03;;;41.08;;
25687;SDS011;17407;51.120;3.702;2023-05-07T22:59:18;56.28;;;41.88;;
25687;SDS011;17407;51.120;3.702;2023-05-07T23:01:44;66.57;;;43.80;;
25687;SDS011;17407;51.120;3.702;2023-05-07T23:04:11;68.13;;;43.05;;
25687;SDS011;17407;51.120;3.702;2023-05-07T23:06:37;61.22;;;43.17;;
25687;SDS011;17407;51.120;3.702;2023-05-07T23:09:02;62.60;;;42.33;;
25687;SDS011;17407;51.120;3.702;2023-05-07T23:11:28;67.25;;;43.95;;
25687;SDS011;17407;51.120;3.702;2023-05-07T23:13:54;68.15;;;45.28;;
25687;SDS011;17407;51.120;3.702;2023-05-07T23:16:20;72.03;;;45.05;;
25687;SDS011;17407;51.120;3.702;2023-05-07T23:18:46;62.30;;;42.95;;
25687;SDS011;17407;51.120;3.702;2023-05-07T23:21:12;63.13;;;43.17;;
25687;SDS011;17407;51.120;3.702;2023-05-07T23:23:38;68.05;;;44.88;;
25687;SDS011;17407;51.120;3.702;2023-05-07T23:26:03;63.83;;;43.80;;
25687;SDS011;17407;51.120;3.702;2023-05-07T23:28:29;71.13;;;45.97;;
25687;SDS011;17407;51.120;3.702;2023-05-07T23:30:55;75.15;;;45.72;;
25687;SDS011;17407;51.120;3.702;2023-05-07T23:33:20;68.28;;;47.00;;
25687;SDS011;17407;51.120;3.702;2023-05-07T23:35:46;74.13;;;46.47;;
25687;SDS011;17407;51.120;3.702;2023-05-07T23:38:12;70.68;;;47.05;;
25687;SDS011;17407;51.120;3.702;2023-05-07T23:40:37;73.50;;;45.00;;
25687;SDS011;17407;51.120;3.702;2023-05-07T23:43:03;69.38;;;47.20;;
25687;SDS011;17407;51.120;3.702;2023-05-07T23:45:28;74.78;;;48.85;;
25687;SDS011;17407;51.120;3.702;2023-05-07T23:47:54;77.63;;;47.72;;
25687;SDS011;17407;51.120;3.702;2023-05-07T23:50:20;87.25;;;49.80;;
25687;SDS011;17407;51.120;3.702;2023-05-07T23:52:45;75.30;;;47.25;;
25687;SDS011;17407;51.120;3.702;2023-05-07T23:55:11;71.93;;;48.22;;
25687;SDS011;17407;51.120;3.702;2023-05-07T23:57:37;76.60;;;47.67;;
